sensor_id;sensor_type;location;lat;lon;timestamp;pressure;altitude;pressure_sealevel;temperature;humidity
66479;BME280;53294;47.912;13.526;2022-12-18T00:02:13;97344.19;;;-1.92;66.21
66479;BME280;53294;47.912;13.526;2022-12-18T00:04:40;97347.63;;;-1.70;65.56
66479;BME280;53294;47.912;13.526;2022-12-18T00:07:06;97344.19;;;-1.92;66.35
66479;BME280;53294;47.912;13.526;2022-12-18T00:09:33;97349.28;;;-2.06;66.88
66479;BME280;53294;47.912;13.526;2022-12-18T00:12:06;97350.78;;;-2.18;67.50
66479;BME280;53294;47.912;13.526;2022-12-18T00:14:44;97353.72;;;-2.43;68.29
66479;BME280;53294;47.912;13.526;2022-12-18T00:17:10;97356.91;;;-2.32;67.98
66479;BME280;53294;47.912;13.526;2022-12-18T00:19:37;97351.03;;;-2.13;66.99
66479;BME280;53294;47.912;13.526;2022-12-18T00:22:04;97355.78;;;-2.23;67.55
66479;BME280;53294;47.912;13.526;2022-12-18T00:24:32;97346.47;;;-2.04;66.65
66479;BME280;53294;47.912;13.526;2022-12-18T00:26:59;97346.44;;;-1.68;65.71
66479;BME280;53294;47.912;13.526;2022-12-18T00:29:25;97355.94;;;-1.45;64.88
66479;BME280;53294;47.912;13.526;2022-12-18T00:31:52;97352.78;;;-1.34;63.96
66479;BME280;53294;47.912;13.526;2022-12-18T00:34:19;97349.84;;;-1.52;64.46
66479;BME280;53294;47.912;13.526;2022-12-18T00:36:47;97364.25;;;-1.70;65.35
66479;BME280;53294;47.912;13.526;2022-12-18T00:39:14;97376.84;;;-1.65;65.89
66479;BME280;53294;47.912;13.526;2022-12-18T00:41:40;97373.06;;;-1.34;64.33
66479;BME280;53294;47.912;13.526;2022-12-18T00:44:25;97377.25;;;-1.18;63.91
66479;BME280;53294;47.912;13.526;2022-12-18T00:46:52;97367.75;;;-1.41;64.45
66479;BME280;53294;47.912;13.526;2022-12-18T00:49:19;97373.78;;;-1.47;64.90
66479;BME280;53294;47.912;13.526;2022-12-18T00:51:47;97366.84;;;-1.27;64.39
66479;BME280;53294;47.912;13.526;2022-12-18T00:54:14;97370.25;;;-1.33;64.60
66479;BME280;53294;47.912;13.526;2022-12-18T00:56:41;97369.66;;;-1.56;65.26
66479;BME280;53294;47.912;13.526;2022-12-18T00:59:15;97370.19;;;-1.83;66.52
66479;BME280;53294;47.912;13.526;2022-12-18T01:01:42;97371.00;;;-1.82;65.99
66479;BME280;53294;47.912;13.526;2022-12-18T01:04:09;97373.22;;;-1.64;65.92
66479;BME280;53294;47.912;13.526;2022-12-18T01:06:36;97376.66;;;-1.85;66.72
66479;BME280;53294;47.912;13.526;2022-12-18T01:09:02;97377.03;;;-1.67;65.33
66479;BME280;53294;47.912;13.526;2022-12-18T01:11:29;97378.50;;;-1.64;65.10
66479;BME280;53294;47.912;13.526;2022-12-18T01:13:59;97387.81;;;-1.40;64.54
66479;BME280;53294;47.912;13.526;2022-12-18T01:16:26;97395.25;;;-1.50;64.65
66479;BME280;53294;47.912;13.526;2022-12-18T01:18:53;97392.66;;;-1.43;64.84
66479;BME280;53294;47.912;13.526;2022-12-18T01:21:22;97399.25;;;-1.54;65.21
66479;BME280;53294;47.912;13.526;2022-12-18T01:23:54;97401.25;;;-1.78;65.91
66479;BME280;53294;47.912;13.526;2022-12-18T01:26:22;97395.75;;;-1.83;65.98
66479;BME280;53294;47.912;13.526;2022-12-18T01:28:48;97397.44;;;-2.12;67.58
66479;BME280;53294;47.912;13.526;2022-12-18T01:31:26;97394.41;;;-1.94;66.43
66479;BME280;53294;47.912;13.526;2022-12-18T01:33:54;97386.31;;;-1.92;66.52
66479;BME280;53294;47.912;13.526;2022-12-18T01:36:22;97395.66;;;-2.26;67.47
66479;BME280;53294;47.912;13.526;2022-12-18T01:38:50;97406.03;;;-2.55;69.34
66479;BME280;53294;47.912;13.526;2022-12-18T01:41:18;97398.66;;;-2.44;68.52
66479;BME280;53294;47.912;13.526;2022-12-18T01:43:55;97398.66;;;-2.29;67.76
66479;BME280;53294;47.912;13.526;2022-12-18T01:46:27;97399.22;;;-1.98;66.23
66479;BME280;53294;47.912;13.526;2022-12-18T01:48:57;97397.44;;;-1.75;65.68
66479;BME280;53294;47.912;13.526;2022-12-18T01:51:25;97402.63;;;-1.82;65.48
66479;BME280;53294;47.912;13.526;2022-12-18T01:53:53;97404.09;;;-1.94;65.83
66479;BME280;53294;47.912;13.526;2022-12-18T01:56:20;97412.41;;;-1.76;65.20
66479;BME280;53294;47.912;13.526;2022-12-18T01:59:05;97418.38;;;-2.04;66.77
66479;BME280;53294;47.912;13.526;2022-12-18T02:01:33;97422.72;;;-1.81;65.61
66479;BME280;53294;47.912;13.526;2022-12-18T02:04:23;97421.09;;;-1.60;65.15
66479;BME280;53294;47.912;13.526;2022-12-18T02:06:57;97411.28;;;-1.67;65.12
66479;BME280;53294;47.912;13.526;2022-12-18T02:09:30;97416.53;;;-1.88;65.91
66479;BME280;53294;47.912;13.526;2022-12-18T02:12:16;97413.97;;;-2.18;66.24
66479;BME280;53294;47.912;13.526;2022-12-18T02:17:21;97418.31;;;-2.25;66.32
66479;BME280;53294;47.912;13.526;2022-12-18T02:28:23;97413.91;;;-1.88;64.77
66479;BME280;53294;47.912;13.526;2022-12-18T02:30:50;97407.16;;;-1.76;64.54
66479;BME280;53294;47.912;13.526;2022-12-18T02:33:20;97404.78;;;-1.71;64.02
66479;BME280;53294;47.912;13.526;2022-12-18T02:35:48;97397.28;;;-1.52;63.69
66479;BME280;53294;47.912;13.526;2022-12-18T02:38:16;97398.81;;;-1.36;63.35
66479;BME280;53294;47.912;13.526;2022-12-18T02:40:44;97407.03;;;-1.89;65.09
66479;BME280;53294;47.912;13.526;2022-12-18T02:43:15;97415.94;;;-2.05;65.53
66479;BME280;53294;47.912;13.526;2022-12-18T02:45:48;97416.72;;;-2.26;66.77
66479;BME280;53294;47.912;13.526;2022-12-18T02:48:17;97423.50;;;-2.32;67.02
66479;BME280;53294;47.912;13.526;2022-12-18T02:50:53;97417.38;;;-2.03;65.47
66479;BME280;53294;47.912;13.526;2022-12-18T02:56:15;97418.31;;;-2.25;66.53
66479;BME280;53294;47.912;13.526;2022-12-18T02:58:59;97429.19;;;-1.99;65.07
66479;BME280;53294;47.912;13.526;2022-12-18T03:04:04;97425.19;;;-1.94;64.83
66479;BME280;53294;47.912;13.526;2022-12-18T03:06:41;97417.19;;;-1.86;64.71
66479;BME280;53294;47.912;13.526;2022-12-18T03:09:21;97408.41;;;-1.72;64.45
66479;BME280;53294;47.912;13.526;2022-12-18T03:12:14;97412.66;;;-1.92;64.73
66479;BME280;53294;47.912;13.526;2022-12-18T03:17:27;97411.22;;;-2.10;64.97
66479;BME280;53294;47.912;13.526;2022-12-18T03:19:59;97420.19;;;-1.89;64.79
66479;BME280;53294;47.912;13.526;2022-12-18T03:22:30;97414.94;;;-1.89;64.31
66479;BME280;53294;47.912;13.526;2022-12-18T03:25:00;97417.94;;;-1.92;64.20
66479;BME280;53294;47.912;13.526;2022-12-18T03:27:29;97412.03;;;-1.73;64.00
66479;BME280;53294;47.912;13.526;2022-12-18T03:30:03;97414.13;;;-1.68;63.87
66479;BME280;53294;47.912;13.526;2022-12-18T03:33:06;97420.56;;;-1.92;64.62
66479;BME280;53294;47.912;13.526;2022-12-18T03:35:34;97418.91;;;-1.93;64.75
66479;BME280;53294;47.912;13.526;2022-12-18T03:38:02;97422.94;;;-1.76;64.19
66479;BME280;53294;47.912;13.526;2022-12-18T03:40:45;97423.81;;;-1.90;64.53
66479;BME280;53294;47.912;13.526;2022-12-18T03:43:24;97427.34;;;-1.83;64.90
66479;BME280;53294;47.912;13.526;2022-12-18T03:46:17;97431.28;;;-2.09;65.45
66479;BME280;53294;47.912;13.526;2022-12-18T03:48:54;97427.19;;;-1.96;65.43
66479;BME280;53294;47.912;13.526;2022-12-18T03:51:42;97426.59;;;-1.77;64.43
66479;BME280;53294;47.912;13.526;2022-12-18T03:54:13;97422.31;;;-1.63;64.01
66479;BME280;53294;47.912;13.526;2022-12-18T03:56:45;97422.31;;;-1.63;64.18
66479;BME280;53294;47.912;13.526;2022-12-18T03:59:15;97432.25;;;-1.80;64.74
66479;BME280;53294;47.912;13.526;2022-12-18T04:01:46;97430.91;;;-1.91;64.84
66479;BME280;53294;47.912;13.526;2022-12-18T04:04:15;97424.63;;;-1.90;65.19
66479;BME280;53294;47.912;13.526;2022-12-18T04:06:43;97430.34;;;-1.86;64.76
66479;BME280;53294;47.912;13.526;2022-12-18T04:09:12;97431.50;;;-1.74;64.35
66479;BME280;53294;47.912;13.526;2022-12-18T04:11:40;97428.97;;;-1.82;64.73
66479;BME280;53294;47.912;13.526;2022-12-18T04:14:08;97432.75;;;-1.70;63.90
66479;BME280;53294;47.912;13.526;2022-12-18T04:16:41;97433.28;;;-1.59;64.13
66479;BME280;53294;47.912;13.526;2022-12-18T04:19:07;97423.53;;;-1.59;63.76
66479;BME280;53294;47.912;13.526;2022-12-18T04:21:34;97426.34;;;-1.60;64.12
66479;BME280;53294;47.912;13.526;2022-12-18T04:24:01;97421.97;;;-1.53;63.81
66479;BME280;53294;47.912;13.526;2022-12-18T04:26:27;97430.00;;;-1.40;63.23
66479;BME280;53294;47.912;13.526;2022-12-18T04:28:54;97425.13;;;-1.65;64.20
66479;BME280;53294;47.912;13.526;2022-12-18T04:31:21;97436.81;;;-1.52;63.85
66479;BME280;53294;47.912;13.526;2022-12-18T04:33:48;97440.25;;;-1.52;63.83
66479;BME280;53294;47.912;13.526;2022-12-18T04:36:14;97439.53;;;-1.60;63.51
66479;BME280;53294;47.912;13.526;2022-12-18T04:38:41;97441.22;;;-1.74;64.14
66479;BME280;53294;47.912;13.526;2022-12-18T04:41:08;97442.25;;;-1.54;63.68
66479;BME280;53294;47.912;13.526;2022-12-18T04:43:34;97440.19;;;-1.58;64.10
66479;BME280;53294;47.912;13.526;2022-12-18T04:46:05;97443.38;;;-1.63;64.02
66479;BME280;53294;47.912;13.526;2022-12-18T04:48:33;97446.25;;;-1.94;64.97
66479;BME280;53294;47.912;13.526;2022-12-18T04:51:00;97440.09;;;-2.02;65.24
66479;BME280;53294;47.912;13.526;2022-12-18T04:53:26;97443.59;;;-2.61;67.04
66479;BME280;53294;47.912;13.526;2022-12-18T04:56:22;97443.38;;;-2.44;66.65
66479;BME280;53294;47.912;13.526;2022-12-18T04:58:49;97433.75;;;-2.22;65.97
66479;BME280;53294;47.912;13.526;2022-12-18T05:01:17;97434.50;;;-2.28;65.67
66479;BME280;53294;47.912;13.526;2022-12-18T05:03:44;97443.56;;;-2.16;65.20
66479;BME280;53294;47.912;13.526;2022-12-18T05:06:11;97443.91;;;-2.19;65.61
66479;BME280;53294;47.912;13.526;2022-12-18T05:08:38;97444.81;;;-2.12;65.32
66479;BME280;53294;47.912;13.526;2022-12-18T05:11:10;97435.94;;;-2.11;64.94
66479;BME280;53294;47.912;13.526;2022-12-18T05:13:37;97442.63;;;-1.93;64.39
66479;BME280;53294;47.912;13.526;2022-12-18T05:16:05;97442.38;;;-2.13;64.98
66479;BME280;53294;47.912;13.526;2022-12-18T05:18:32;97439.72;;;-1.99;64.08
66479;BME280;53294;47.912;13.526;2022-12-18T05:20:59;97439.78;;;-2.28;65.35
66479;BME280;53294;47.912;13.526;2022-12-18T05:23:26;97451.09;;;-2.13;64.86
66479;BME280;53294;47.912;13.526;2022-12-18T05:28:22;97456.69;;;-1.86;64.42
66479;BME280;53294;47.912;13.526;2022-12-18T05:30:53;97446.34;;;-1.88;64.37
66479;BME280;53294;47.912;13.526;2022-12-18T05:33:21;97449.72;;;-2.09;64.63
66479;BME280;53294;47.912;13.526;2022-12-18T05:35:52;97455.28;;;-2.63;66.35
66479;BME280;53294;47.912;13.526;2022-12-18T05:38:20;97458.75;;;-2.86;67.09
66479;BME280;53294;47.912;13.526;2022-12-18T05:40:47;97461.69;;;-2.66;66.99
66479;BME280;53294;47.912;13.526;2022-12-18T05:43:14;97468.44;;;-2.33;65.45
66479;BME280;53294;47.912;13.526;2022-12-18T05:45:47;97464.53;;;-2.08;64.36
66479;BME280;53294;47.912;13.526;2022-12-18T05:48:14;97470.25;;;-1.89;63.89
66479;BME280;53294;47.912;13.526;2022-12-18T05:50:43;97478.31;;;-1.91;64.28
66479;BME280;53294;47.912;13.526;2022-12-18T05:53:12;97487.88;;;-2.20;64.76
66479;BME280;53294;47.912;13.526;2022-12-18T05:55:40;97499.22;;;-2.34;65.38
66479;BME280;53294;47.912;13.526;2022-12-18T05:58:08;97506.13;;;-2.18;64.88
66479;BME280;53294;47.912;13.526;2022-12-18T06:00:37;97505.03;;;-2.09;64.53
66479;BME280;53294;47.912;13.526;2022-12-18T06:03:08;97503.38;;;-1.95;63.95
66479;BME280;53294;47.912;13.526;2022-12-18T06:05:37;97503.19;;;-1.93;63.86
66479;BME280;53294;47.912;13.526;2022-12-18T06:08:05;97494.22;;;-2.14;64.00
66479;BME280;53294;47.912;13.526;2022-12-18T06:10:32;97488.31;;;-2.16;63.97
66479;BME280;53294;47.912;13.526;2022-12-18T06:12:59;97492.44;;;-2.28;64.51
66479;BME280;53294;47.912;13.526;2022-12-18T06:15:26;97504.75;;;-2.44;64.87
66479;BME280;53294;47.912;13.526;2022-12-18T06:17:53;97508.53;;;-2.61;65.72
66479;BME280;53294;47.912;13.526;2022-12-18T06:20:20;97517.47;;;-2.71;65.66
66479;BME280;53294;47.912;13.526;2022-12-18T06:22:46;97521.72;;;-2.46;64.71
66479;BME280;53294;47.912;13.526;2022-12-18T06:25:13;97518.34;;;-2.25;64.18
66479;BME280;53294;47.912;13.526;2022-12-18T06:27:40;97523.00;;;-2.12;63.67
66479;BME280;53294;47.912;13.526;2022-12-18T06:30:09;97515.19;;;-2.06;63.41
66479;BME280;53294;47.912;13.526;2022-12-18T06:32:35;97508.41;;;-2.00;63.04
66479;BME280;53294;47.912;13.526;2022-12-18T06:35:02;97513.75;;;-2.23;63.58
66479;BME280;53294;47.912;13.526;2022-12-18T06:37:30;97510.47;;;-2.25;64.16
66479;BME280;53294;47.912;13.526;2022-12-18T06:39:57;97517.56;;;-2.11;63.86
66479;BME280;53294;47.912;13.526;2022-12-18T06:42:24;97514.38;;;-2.21;63.53
66479;BME280;53294;47.912;13.526;2022-12-18T06:44:51;97524.06;;;-2.37;64.49
66479;BME280;53294;47.912;13.526;2022-12-18T06:47:18;97522.91;;;-2.19;64.07
66479;BME280;53294;47.912;13.526;2022-12-18T06:49:45;97529.63;;;-2.17;63.88
66479;BME280;53294;47.912;13.526;2022-12-18T06:52:11;97529.81;;;-2.18;63.78
66479;BME280;53294;47.912;13.526;2022-12-18T06:54:38;97528.66;;;-2.68;65.87
66479;BME280;53294;47.912;13.526;2022-12-18T06:57:04;97529.50;;;-2.91;65.93
66479;BME280;53294;47.912;13.526;2022-12-18T06:59:31;97534.38;;;-3.34;67.86
66479;BME280;53294;47.912;13.526;2022-12-18T07:01:58;97536.38;;;-3.36;68.08
66479;BME280;53294;47.912;13.526;2022-12-18T07:04:29;97545.66;;;-3.49;69.01
66479;BME280;53294;47.912;13.526;2022-12-18T07:06:56;97546.38;;;-3.63;69.44
66479;BME280;53294;47.912;13.526;2022-12-18T07:09:24;97558.38;;;-3.29;67.74
66479;BME280;53294;47.912;13.526;2022-12-18T07:11:51;97555.41;;;-3.34;67.33
66479;BME280;53294;47.912;13.526;2022-12-18T07:14:18;97552.78;;;-3.34;67.30
66479;BME280;53294;47.912;13.526;2022-12-18T07:16:44;97547.38;;;-3.10;66.45
66479;BME280;53294;47.912;13.526;2022-12-18T07:19:11;97538.69;;;-2.87;65.85
66479;BME280;53294;47.912;13.526;2022-12-18T07:21:38;97542.38;;;-2.96;65.24
66479;BME280;53294;47.912;13.526;2022-12-18T07:24:05;97540.84;;;-3.14;66.28
66479;BME280;53294;47.912;13.526;2022-12-18T07:26:32;97540.16;;;-3.39;67.57
66479;BME280;53294;47.912;13.526;2022-12-18T07:28:58;97553.09;;;-3.29;66.56
66479;BME280;53294;47.912;13.526;2022-12-18T07:31:25;97551.19;;;-3.12;66.08
66479;BME280;53294;47.912;13.526;2022-12-18T07:33:53;97556.06;;;-3.64;67.55
66479;BME280;53294;47.912;13.526;2022-12-18T07:36:20;97555.34;;;-3.49;67.23
66479;BME280;53294;47.912;13.526;2022-12-18T07:38:47;97555.88;;;-3.54;67.57
66479;BME280;53294;47.912;13.526;2022-12-18T07:41:15;97564.31;;;-3.35;66.79
66479;BME280;53294;47.912;13.526;2022-12-18T07:43:41;97561.13;;;-3.54;67.62
66479;BME280;53294;47.912;13.526;2022-12-18T07:46:09;97566.28;;;-3.37;67.37
66479;BME280;53294;47.912;13.526;2022-12-18T07:48:40;97564.44;;;-3.29;67.02
66479;BME280;53294;47.912;13.526;2022-12-18T07:51:07;97557.81;;;-3.56;68.25
66479;BME280;53294;47.912;13.526;2022-12-18T07:53:35;97568.53;;;-3.26;66.76
66479;BME280;53294;47.912;13.526;2022-12-18T07:56:08;97565.03;;;-2.95;65.90
66479;BME280;53294;47.912;13.526;2022-12-18T07:58:55;97572.41;;;-3.14;66.17
66479;BME280;53294;47.912;13.526;2022-12-18T08:01:22;97573.41;;;-2.92;65.97
66479;BME280;53294;47.912;13.526;2022-12-18T08:03:49;97568.41;;;-2.86;66.24
66479;BME280;53294;47.912;13.526;2022-12-18T08:06:17;97573.66;;;-2.63;65.32
66479;BME280;53294;47.912;13.526;2022-12-18T08:08:44;97563.22;;;-2.72;65.13
66479;BME280;53294;47.912;13.526;2022-12-18T08:11:11;97576.13;;;-2.85;65.93
66479;BME280;53294;47.912;13.526;2022-12-18T08:13:37;97575.97;;;-2.83;65.89
66479;BME280;53294;47.912;13.526;2022-12-18T08:16:06;97577.78;;;-2.61;65.23
66479;BME280;53294;47.912;13.526;2022-12-18T08:18:35;97579.00;;;-2.72;64.96
66479;BME280;53294;47.912;13.526;2022-12-18T08:21:14;97572.84;;;-3.10;66.55
66479;BME280;53294;47.912;13.526;2022-12-18T08:23:41;97581.28;;;-3.15;67.63
66479;BME280;53294;47.912;13.526;2022-12-18T08:26:10;97593.91;;;-3.50;68.18
66479;BME280;53294;47.912;13.526;2022-12-18T08:28:37;97593.59;;;-3.15;67.70
66479;BME280;53294;47.912;13.526;2022-12-18T08:31:05;97598.06;;;-3.24;67.14
66479;BME280;53294;47.912;13.526;2022-12-18T08:33:32;97599.28;;;-3.74;69.24
66479;BME280;53294;47.912;13.526;2022-12-18T08:35:59;97588.75;;;-3.66;69.54
66479;BME280;53294;47.912;13.526;2022-12-18T08:38:26;97595.28;;;-3.62;69.64
66479;BME280;53294;47.912;13.526;2022-12-18T08:41:00;97590.69;;;-3.60;69.58
66479;BME280;53294;47.912;13.526;2022-12-18T08:43:27;97579.81;;;-3.49;68.29
66479;BME280;53294;47.912;13.526;2022-12-18T08:46:16;97572.22;;;-3.44;69.11
66479;BME280;53294;47.912;13.526;2022-12-18T08:48:43;97576.88;;;-3.54;69.03
66479;BME280;53294;47.912;13.526;2022-12-18T08:51:10;97581.38;;;-3.71;69.18
66479;BME280;53294;47.912;13.526;2022-12-18T08:53:37;97579.84;;;-3.57;70.22
66479;BME280;53294;47.912;13.526;2022-12-18T08:56:04;97572.22;;;-3.44;69.05
66479;BME280;53294;47.912;13.526;2022-12-18T08:58:31;97578.66;;;-3.46;68.09
66479;BME280;53294;47.912;13.526;2022-12-18T09:01:06;97580.53;;;-3.71;68.76
66479;BME280;53294;47.912;13.526;2022-12-18T09:03:33;97587.91;;;-3.67;69.27
66479;BME280;53294;47.912;13.526;2022-12-18T09:06:00;97598.25;;;-3.57;69.14
66479;BME280;53294;47.912;13.526;2022-12-18T09:08:27;97582.03;;;-3.37;68.34
66479;BME280;53294;47.912;13.526;2022-12-18T09:10:54;97593.63;;;-3.55;67.88
66479;BME280;53294;47.912;13.526;2022-12-18T09:13:22;97585.00;;;-3.32;68.31
66479;BME280;53294;47.912;13.526;2022-12-18T09:15:51;97587.97;;;-3.35;67.84
66479;BME280;53294;47.912;13.526;2022-12-18T09:18:19;97591.56;;;-3.36;68.00
66479;BME280;53294;47.912;13.526;2022-12-18T09:20:47;97594.88;;;-3.43;68.26
66479;BME280;53294;47.912;13.526;2022-12-18T09:23:13;97596.31;;;-3.32;68.14
66479;BME280;53294;47.912;13.526;2022-12-18T09:25:40;97585.91;;;-3.25;67.49
66479;BME280;53294;47.912;13.526;2022-12-18T09:28:13;97592.78;;;-2.93;66.84
66479;BME280;53294;47.912;13.526;2022-12-18T09:30:46;97592.66;;;-2.53;65.81
66479;BME280;53294;47.912;13.526;2022-12-18T09:33:13;97600.56;;;-2.53;65.33
66479;BME280;53294;47.912;13.526;2022-12-18T09:35:42;97601.78;;;-2.41;65.12
66479;BME280;53294;47.912;13.526;2022-12-18T09:38:12;97607.28;;;-2.12;64.03
66479;BME280;53294;47.912;13.526;2022-12-18T09:40:53;97612.53;;;-2.74;64.96
66479;BME280;53294;47.912;13.526;2022-12-18T09:43:23;97607.25;;;-2.65;64.64
66479;BME280;53294;47.912;13.526;2022-12-18T09:45:55;97606.19;;;-2.56;64.36
66479;BME280;53294;47.912;13.526;2022-12-18T09:48:47;97609.34;;;-2.84;66.03
66479;BME280;53294;47.912;13.526;2022-12-18T09:51:20;97612.66;;;-2.44;64.61
66479;BME280;53294;47.912;13.526;2022-12-18T09:53:55;97614.22;;;-2.35;64.29
66479;BME280;53294;47.912;13.526;2022-12-18T09:56:26;97613.78;;;-2.23;64.18
66479;BME280;53294;47.912;13.526;2022-12-18T09:59:03;97618.63;;;-2.12;64.40
66479;BME280;53294;47.912;13.526;2022-12-18T10:01:31;97610.75;;;-1.97;64.07
66479;BME280;53294;47.912;13.526;2022-12-18T10:04:09;97610.00;;;-2.06;63.63
66479;BME280;53294;47.912;13.526;2022-12-18T10:09:25;97607.00;;;-2.03;63.41
66479;BME280;53294;47.912;13.526;2022-12-18T10:14:43;97597.03;;;-1.92;63.31
66479;BME280;53294;47.912;13.526;2022-12-18T10:20:38;97588.50;;;-2.94;64.04
66479;BME280;53294;47.912;13.526;2022-12-18T10:26:03;97581.66;;;-3.26;65.48
66479;BME280;53294;47.912;13.526;2022-12-18T10:28:33;97581.63;;;-3.18;65.29
66479;BME280;53294;47.912;13.526;2022-12-18T10:31:00;97571.72;;;-3.08;65.63
66479;BME280;53294;47.912;13.526;2022-12-18T10:33:31;97572.06;;;-3.11;66.25
66479;BME280;53294;47.912;13.526;2022-12-18T10:35:59;97564.91;;;-3.02;66.08
66479;BME280;53294;47.912;13.526;2022-12-18T10:38:28;97564.22;;;-2.96;66.44
66479;BME280;53294;47.912;13.526;2022-12-18T10:43:35;97553.91;;;-2.59;64.96
66479;BME280;53294;47.912;13.526;2022-12-18T10:48:34;97551.06;;;-2.73;64.75
66479;BME280;53294;47.912;13.526;2022-12-18T10:51:03;97553.84;;;-2.51;65.13
66479;BME280;53294;47.912;13.526;2022-12-18T10:53:39;97552.84;;;-2.50;65.33
66479;BME280;53294;47.912;13.526;2022-12-18T10:56:08;97551.13;;;-2.43;64.79
66479;BME280;53294;47.912;13.526;2022-12-18T10:58:37;97552.75;;;-2.42;64.05
66479;BME280;53294;47.912;13.526;2022-12-18T11:01:15;97557.31;;;-2.21;63.31
66479;BME280;53294;47.912;13.526;2022-12-18T11:03:45;97556.31;;;-2.73;62.94
66479;BME280;53294;47.912;13.526;2022-12-18T11:06:15;97545.88;;;-2.81;63.99
66479;BME280;53294;47.912;13.526;2022-12-18T11:08:44;97544.59;;;-2.47;63.22
66479;BME280;53294;47.912;13.526;2022-12-18T11:11:23;97549.69;;;-2.30;62.68
66479;BME280;53294;47.912;13.526;2022-12-18T11:14:07;97535.81;;;-2.24;62.92
66479;BME280;53294;47.912;13.526;2022-12-18T11:16:48;97530.91;;;-3.03;63.73
66479;BME280;53294;47.912;13.526;2022-12-18T11:19:38;97533.53;;;-3.03;63.35
66479;BME280;53294;47.912;13.526;2022-12-18T11:25:04;97530.84;;;-2.57;62.43
66479;BME280;53294;47.912;13.526;2022-12-18T11:27:55;97528.41;;;-2.59;62.42
66479;BME280;53294;47.912;13.526;2022-12-18T11:32:58;97526.88;;;-2.53;62.42
66479;BME280;53294;47.912;13.526;2022-12-18T11:38:02;97533.63;;;-2.06;61.29
66479;BME280;53294;47.912;13.526;2022-12-18T11:40:36;97538.09;;;-2.06;60.50
66479;BME280;53294;47.912;13.526;2022-12-18T11:43:12;97532.44;;;-2.33;61.93
66479;BME280;53294;47.912;13.526;2022-12-18T11:45:49;97534.28;;;-2.19;60.98
66479;BME280;53294;47.912;13.526;2022-12-18T11:48:25;97524.28;;;-1.93;60.67
66479;BME280;53294;47.912;13.526;2022-12-18T11:50:55;97523.38;;;-1.86;59.60
66479;BME280;53294;47.912;13.526;2022-12-18T11:53:24;97519.97;;;-1.65;59.32
66479;BME280;53294;47.912;13.526;2022-12-18T11:56:25;97517.91;;;-2.44;61.46
66479;BME280;53294;47.912;13.526;2022-12-18T12:01:50;97529.09;;;-3.57;64.04
66479;BME280;53294;47.912;13.526;2022-12-18T12:15:12;97522.44;;;-3.14;63.65
66479;BME280;53294;47.912;13.526;2022-12-18T12:17:55;97539.22;;;-3.15;63.38
66479;BME280;53294;47.912;13.526;2022-12-18T12:21:05;97529.38;;;-2.75;62.64
66479;BME280;53294;47.912;13.526;2022-12-18T12:32:36;97519.84;;;-2.08;61.40
66479;BME280;53294;47.912;13.526;2022-12-18T12:38:16;97522.72;;;-2.32;61.88
66479;BME280;53294;47.912;13.526;2022-12-18T12:40:58;97513.09;;;-2.25;61.46
66479;BME280;53294;47.912;13.526;2022-12-18T12:43:44;97517.78;;;-2.65;62.64
66479;BME280;53294;47.912;13.526;2022-12-18T12:46:19;97512.19;;;-2.32;62.01
66479;BME280;53294;47.912;13.526;2022-12-18T12:48:58;97517.84;;;-2.06;61.19
66479;BME280;53294;47.912;13.526;2022-12-18T12:51:32;97513.06;;;-1.66;60.62
66479;BME280;53294;47.912;13.526;2022-12-18T12:54:02;97515.47;;;-2.01;60.94
66479;BME280;53294;47.912;13.526;2022-12-18T12:56:40;97519.19;;;-2.25;62.29
66479;BME280;53294;47.912;13.526;2022-12-18T12:59:23;97523.66;;;-1.95;61.61
66479;BME280;53294;47.912;13.526;2022-12-18T13:01:59;97523.28;;;-1.41;60.52
66479;BME280;53294;47.912;13.526;2022-12-18T13:18:21;97529.22;;;-1.17;60.03
66479;BME280;53294;47.912;13.526;2022-12-18T13:23:33;97532.22;;;-1.20;60.52
66479;BME280;53294;47.912;13.526;2022-12-18T13:37:36;97522.91;;;-2.19;63.47
66479;BME280;53294;47.912;13.526;2022-12-18T13:43:23;97523.72;;;-2.33;64.21
66479;BME280;53294;47.912;13.526;2022-12-18T13:46:03;97532.00;;;-2.07;63.85
66479;BME280;53294;47.912;13.526;2022-12-18T13:48:34;97527.06;;;-2.40;64.32
66479;BME280;53294;47.912;13.526;2022-12-18T13:51:07;97531.47;;;-2.17;63.68
66479;BME280;53294;47.912;13.526;2022-12-18T13:53:39;97542.63;;;-2.00;63.01
66479;BME280;53294;47.912;13.526;2022-12-18T13:56:09;97536.25;;;-2.21;63.36
66479;BME280;53294;47.912;13.526;2022-12-18T13:58:35;97536.13;;;-2.57;64.06
66479;BME280;53294;47.912;13.526;2022-12-18T14:01:02;97530.63;;;-2.71;63.67
66479;BME280;53294;47.912;13.526;2022-12-18T14:03:31;97540.59;;;-3.27;64.90
66479;BME280;53294;47.912;13.526;2022-12-18T14:06:01;97543.75;;;-2.62;63.59
66479;BME280;53294;47.912;13.526;2022-12-18T14:08:34;97542.00;;;-2.70;63.63
66479;BME280;53294;47.912;13.526;2022-12-18T14:11:04;97540.88;;;-2.76;63.96
66479;BME280;53294;47.912;13.526;2022-12-18T14:13:38;97538.75;;;-2.57;63.04
66479;BME280;53294;47.912;13.526;2022-12-18T14:16:12;97547.38;;;-3.10;64.94
66479;BME280;53294;47.912;13.526;2022-12-18T14:18:52;97539.41;;;-2.78;64.37
66479;BME280;53294;47.912;13.526;2022-12-18T14:21:28;97531.47;;;-2.70;64.08
66479;BME280;53294;47.912;13.526;2022-12-18T14:26:32;97533.59;;;-2.50;63.65
66479;BME280;53294;47.912;13.526;2022-12-18T14:29:17;97539.41;;;-2.25;62.96
66479;BME280;53294;47.912;13.526;2022-12-18T14:32:13;97539.72;;;-2.20;63.71
66479;BME280;53294;47.912;13.526;2022-12-18T14:34:52;97538.25;;;-2.23;63.12
66479;BME280;53294;47.912;13.526;2022-12-18T14:37:23;97533.53;;;-2.27;62.72
66479;BME280;53294;47.912;13.526;2022-12-18T14:40:02;97535.81;;;-2.77;64.59
66479;BME280;53294;47.912;13.526;2022-12-18T14:42:37;97528.78;;;-2.85;64.93
66479;BME280;53294;47.912;13.526;2022-12-18T14:45:32;97542.13;;;-2.86;64.67
66479;BME280;53294;47.912;13.526;2022-12-18T14:48:16;97542.22;;;-2.80;64.75
66479;BME280;53294;47.912;13.526;2022-12-18T14:50:58;97540.81;;;-2.91;64.04
66479;BME280;53294;47.912;13.526;2022-12-18T14:56:10;97540.16;;;-3.08;64.77
66479;BME280;53294;47.912;13.526;2022-12-18T14:58:45;97552.34;;;-3.15;65.40
66479;BME280;53294;47.912;13.526;2022-12-18T15:01:49;97556.03;;;-2.78;64.92